Terminal Aerodrome Forecast
Issued by NWS Corpus Christi, TX

Home | Current Version | Previous Version | Text Only | Print | Product List | Glossary On
Versions: 1 2 3 4 5 6 7 8 9 10 11 12 13 14 15 16
000
FTUS44 KCRP 301100 AAA
TAFCRP
TAF AMD
KCRP 301143Z 3012/3112 VRB05KT P6SM VCSH SCT015 BKN035
      TEMPO 3012/3014 VRB20G25KT 3SM TSRA BKN015CB
     FM301400 16007KT P6SM VCTS SCT020CB BKN040
      TEMPO 3014/3018 5SM TSRA BKN018CB
     FM301800 12013KT P6SM VCSH SCT035 BKN150
     FM310300 15010KT P6SM SCT020 BKN120
     FM310800 16004KT P6SM SCT020 BKN120=

USA.gov is the U.S. government's official web portal to all federal, state and local government web resources and services.